Terminal Aerodrome Forecast
Issued by NWS

Home | Current Version | Previous Version | Text Only | Print | Product List | Glossary Off
Versions: 1 2 3 4 5 6 7 8 9 10 11 12 13 14 15 16 17 18

320
FTUS43 KABR 101728
TAFPIR
TAF
KPIR 101728Z 1018/1118 31018G25KT P6SM SKC
     FM102300 28010KT P6SM SCT250
     FM110000 30023G32KT P6SM SCT200
     FM111500 32023G32KT P6SM OVC020=

USA.gov is the U.S. government's official web portal to all federal, state and local government web resources and services.